createdAt,value
2023-02-05T00:01:29.655Z,49.25
2023-02-05T00:03:58.079Z,44.47
2023-02-05T00:06:26.941Z,49.08
2023-02-05T00:08:54.295Z,45.67
2023-02-05T00:11:21.182Z,48.58
2023-02-05T00:13:49.305Z,44.25
2023-02-05T00:16:19.652Z,46.67
2023-02-05T00:18:47.260Z,52.72
2023-02-05T00:21:15.942Z,48.30
2023-02-05T00:23:49.720Z,48.22
2023-02-05T00:26:16.981Z,52.97
2023-02-05T00:28:44.592Z,44.03
2023-02-05T00:31:19.732Z,44.28
2023-02-05T00:33:48.568Z,45.20
2023-02-05T00:36:16.532Z,46.17
2023-02-05T00:38:44.527Z,46.47
2023-02-05T00:41:12.245Z,43.75
2023-02-05T00:43:41.350Z,42.88
2023-02-05T00:46:09.352Z,45.80
2023-02-05T00:48:36.515Z,43.17
2023-02-05T00:51:08.276Z,39.75
2023-02-05T00:53:38.715Z,46.50
2023-02-05T00:56:06.052Z,42.53
2023-02-05T00:58:33.300Z,43.33
2023-02-05T01:01:00.435Z,44.33
2023-02-05T01:03:42.679Z,43.08
2023-02-05T01:06:10.010Z,39.88
2023-02-05T01:08:37.057Z,42.55
2023-02-05T01:11:11.283Z,44.97
2023-02-05T01:13:39.229Z,40.38
2023-02-05T01:16:06.710Z,43.50
2023-02-05T01:18:33.923Z,38.08
2023-02-05T01:21:00.774Z,42.72
2023-02-05T01:23:27.685Z,43.90
2023-02-05T01:25:55.701Z,38.10
2023-02-05T01:28:22.770Z,40.92
2023-02-05T01:30:51.164Z,40.50
2023-02-05T01:33:19.496Z,37.45
2023-02-05T01:35:46.565Z,35.47
2023-02-05T01:38:18.648Z,39.00
2023-02-05T01:40:46.678Z,35.58
2023-02-05T01:43:16.322Z,41.13
2023-02-05T01:46:10.535Z,45.75
2023-02-05T01:48:42.573Z,41.45
2023-02-05T01:51:12.988Z,45.42
2023-02-05T01:53:41.660Z,40.10
2023-02-05T01:56:14.227Z,41.67
2023-02-05T02:01:10.777Z,37.38
2023-02-05T02:03:38.933Z,39.80
2023-02-05T02:06:06.317Z,35.50
2023-02-05T02:08:33.658Z,36.72
2023-02-05T02:11:04.941Z,35.55
2023-02-05T02:13:36.893Z,32.50
2023-02-05T02:16:08.310Z,33.10
2023-02-05T02:18:38.290Z,25.13
2023-02-05T02:21:30.971Z,23.75
2023-02-05T02:24:21.061Z,24.77
2023-02-05T02:27:11.364Z,21.92
2023-02-05T02:29:46.304Z,25.77
2023-02-05T02:32:21.252Z,20.70
2023-02-05T02:35:19.274Z,19.55
2023-02-05T02:38:10.967Z,18.98
2023-02-05T02:40:48.949Z,18.85
2023-02-05T02:43:27.960Z,17.77
2023-02-05T02:46:12.128Z,16.38
2023-02-05T02:48:42.602Z,19.02
2023-02-05T02:51:15.853Z,14.65
2023-02-05T02:53:51.250Z,13.40
2023-02-05T02:56:20.326Z,13.75
2023-02-05T02:58:56.434Z,13.90
2023-02-05T03:01:27.812Z,11.75
2023-02-05T03:04:03.952Z,11.65
2023-02-05T03:06:34.664Z,11.82
2023-02-05T03:09:05.398Z,14.10
2023-02-05T03:11:33.892Z,10.15
2023-02-05T03:14:04.679Z,15.20
2023-02-05T03:16:44.980Z,12.88
2023-02-05T03:19:12.326Z,13.43
2023-02-05T03:21:48.122Z,12.15
2023-02-05T03:24:43.019Z,12.75
2023-02-05T03:27:12.291Z,9.00
2023-02-05T03:29:46.978Z,10.38
2023-02-05T03:32:39.059Z,9.02
2023-02-05T03:35:32.016Z,10.60
2023-02-05T03:38:23.230Z,11.40
2023-02-05T03:41:00.383Z,12.63
2023-02-05T03:44:19.335Z,10.20
2023-02-05T03:47:01.112Z,9.38
2023-02-05T03:49:41.004Z,11.20
2023-02-05T03:52:25.765Z,12.80
2023-02-05T03:54:58.781Z,9.18
2023-02-05T03:57:55.931Z,9.95
2023-02-05T04:00:27.187Z,10.30
2023-02-05T04:02:55.481Z,11.27
2023-02-05T04:05:27.711Z,11.00
2023-02-05T04:08:01.523Z,10.23
2023-02-05T04:10:33.856Z,15.07
2023-02-05T04:13:05.651Z,13.35
2023-02-05T04:15:35.914Z,14.27
2023-02-05T04:18:08.215Z,15.32
2023-02-05T04:20:35.422Z,12.88
2023-02-05T04:23:04.586Z,14.48
2023-02-05T04:25:33.663Z,11.52
2023-02-05T04:28:05.926Z,10.48
2023-02-05T04:30:34.574Z,13.48
2023-02-05T04:33:03.076Z,13.43
2023-02-05T04:35:31.007Z,12.82
2023-02-05T04:37:58.336Z,16.10
2023-02-05T04:40:27.952Z,15.05
2023-02-05T04:42:56.019Z,17.33
2023-02-05T04:45:23.070Z,16.83
2023-02-05T04:47:51.064Z,19.02
2023-02-05T04:50:20.826Z,14.40
2023-02-05T04:52:48.029Z,15.65
2023-02-05T04:55:15.007Z,19.23
2023-02-05T04:57:42.051Z,16.98
2023-02-05T05:00:10.289Z,17.85
2023-02-05T05:02:37.255Z,22.63
2023-02-05T05:05:05.579Z,18.40
2023-02-05T05:07:33.885Z,19.15
2023-02-05T05:10:00.818Z,22.95
2023-02-05T05:12:27.734Z,19.90
2023-02-05T05:14:55.889Z,23.75
2023-02-05T05:17:22.911Z,29.30
2023-02-05T05:19:49.846Z,30.88
2023-02-05T05:22:20.430Z,31.33
2023-02-05T05:24:48.757Z,33.58
2023-02-05T05:27:16.771Z,34.42
2023-02-05T05:29:44.133Z,36.13
2023-02-05T05:32:12.991Z,43.40
2023-02-05T05:34:39.978Z,41.42
2023-02-05T05:37:08.190Z,33.97
2023-02-05T05:39:53.539Z,42.22
2023-02-05T05:42:39.582Z,41.53
2023-02-05T05:45:08.137Z,46.30
2023-02-05T05:47:35.078Z,45.90
2023-02-05T05:50:03.630Z,46.08
2023-02-05T05:52:34.306Z,43.67
2023-02-05T05:55:01.303Z,41.83
2023-02-05T05:57:29.311Z,44.10
2023-02-05T05:59:56.416Z,49.25
2023-02-05T06:06:45.922Z,44.28
2023-02-05T06:09:13.271Z,45.60
2023-02-05T06:11:40.216Z,47.28
2023-02-05T06:14:08.862Z,52.13
2023-02-05T06:16:35.789Z,52.33
2023-02-05T06:19:02.881Z,57.40
2023-02-05T06:21:32.393Z,51.83
2023-02-05T06:23:59.512Z,54.17
2023-02-05T06:26:27.434Z,50.90
2023-02-05T06:28:57.259Z,49.63
2023-02-05T06:31:25.434Z,52.03
2023-02-05T06:33:52.789Z,46.30
2023-02-05T06:36:19.706Z,47.45
2023-02-05T06:38:47.665Z,42.45
2023-02-05T06:41:14.725Z,43.65
2023-02-05T06:43:41.908Z,29.00
2023-02-05T06:46:13.091Z,30.10
2023-02-05T06:48:41.941Z,26.42
2023-02-05T06:51:09.904Z,24.30
2023-02-05T06:53:36.990Z,21.55
2023-02-05T06:56:04.460Z,17.90
2023-02-05T06:58:31.445Z,16.00
2023-02-05T07:00:58.842Z,17.20
2023-02-05T07:03:28.119Z,13.60
2023-02-05T07:05:55.151Z,16.92
2023-02-05T07:08:22.529Z,22.35
2023-02-05T07:10:50.466Z,10.32
2023-02-05T07:13:17.822Z,18.88
2023-02-05T07:15:44.801Z,13.30
2023-02-05T07:18:13.781Z,17.13
2023-02-05T07:20:42.774Z,15.50
2023-02-05T07:23:10.813Z,16.25
2023-02-05T07:25:39.128Z,16.42
2023-02-05T07:28:08.799Z,19.13
2023-02-05T07:30:36.788Z,25.05
2023-02-05T07:33:04.770Z,25.40
2023-02-05T07:35:37.415Z,16.30
2023-02-05T07:38:05.336Z,14.07
2023-02-05T07:40:32.512Z,9.40
2023-02-05T07:43:00.778Z,8.95
2023-02-05T07:45:27.625Z,11.52
2023-02-05T07:47:57.658Z,14.40
2023-02-05T07:50:24.489Z,10.77
2023-02-05T07:52:51.328Z,16.10
2023-02-05T07:55:18.324Z,14.52
2023-02-05T07:57:46.854Z,11.95
2023-02-05T08:00:15.102Z,13.85
2023-02-05T08:02:42.059Z,16.45
2023-02-05T08:05:09.165Z,13.48
2023-02-05T08:07:37.457Z,14.57
2023-02-05T08:10:05.050Z,18.48
2023-02-05T08:12:32.006Z,15.15
2023-02-05T08:14:58.966Z,20.63
2023-02-05T08:17:25.884Z,17.50
2023-02-05T08:19:52.754Z,21.60
2023-02-05T08:22:19.697Z,17.95
2023-02-05T08:24:49.383Z,20.90
2023-02-05T08:27:16.354Z,11.77
2023-02-05T08:29:43.347Z,13.85
2023-02-05T08:32:10.227Z,19.45
2023-02-05T08:34:39.141Z,16.63
2023-02-05T08:37:07.409Z,18.40
2023-02-05T08:39:35.628Z,19.08
2023-02-05T08:42:02.819Z,22.45
2023-02-05T08:44:29.885Z,19.95
2023-02-05T08:47:08.308Z,23.58
2023-02-05T08:49:37.516Z,20.45
2023-02-05T08:52:05.556Z,24.13
2023-02-05T08:54:32.501Z,20.05
2023-02-05T08:57:02.367Z,27.58
2023-02-05T08:59:29.343Z,21.25
2023-02-05T09:01:56.447Z,24.55
2023-02-05T09:04:27.647Z,23.33
2023-02-05T09:06:55.731Z,20.17
2023-02-05T09:09:25.341Z,24.27
2023-02-05T09:11:53.475Z,31.13
2023-02-05T09:14:20.288Z,27.10
2023-02-05T09:16:47.268Z,14.75
2023-02-05T09:19:14.250Z,30.35
2023-02-05T09:21:43.157Z,23.42
2023-02-05T09:24:11.240Z,26.05
2023-02-05T09:26:38.216Z,26.95
2023-02-05T09:29:05.077Z,21.55
2023-02-05T09:31:32.298Z,23.77
2023-02-05T09:34:04.554Z,23.05
2023-02-05T09:36:41.613Z,29.05
2023-02-05T09:39:18.502Z,20.35
2023-02-05T09:42:11.365Z,18.75
2023-02-05T09:45:03.961Z,20.83
2023-02-05T09:47:59.138Z,23.73
2023-02-05T09:50:29.822Z,22.00
2023-02-05T09:53:06.463Z,24.75
2023-02-05T09:55:38.976Z,49.38
2023-02-05T09:58:18.617Z,21.52
2023-02-05T10:01:04.266Z,28.98
2023-02-05T10:03:50.187Z,36.13
2023-02-05T10:06:21.467Z,26.40
2023-02-05T10:11:30.704Z,31.40
2023-02-05T10:14:16.263Z,27.90
2023-02-05T10:17:12.974Z,30.77
2023-02-05T10:19:57.409Z,33.63
2023-02-05T10:22:43.336Z,31.65
2023-02-05T10:25:45.265Z,28.67
2023-02-05T10:28:31.735Z,34.38
2023-02-05T10:31:10.965Z,37.22
2023-02-05T10:33:49.122Z,39.67
2023-02-05T10:36:21.941Z,33.50
2023-02-05T10:38:53.714Z,33.88
2023-02-05T10:41:39.218Z,35.63
2023-02-05T10:44:18.473Z,35.58
2023-02-05T10:46:53.022Z,27.67
2023-02-05T10:49:45.605Z,26.65
2023-02-05T10:52:17.831Z,38.58
2023-02-05T10:54:46.694Z,37.03
2023-02-05T10:57:22.500Z,28.52
2023-02-05T10:59:59.553Z,34.42
2023-02-05T11:02:38.518Z,35.13
2023-02-05T11:05:14.419Z,24.90
2023-02-05T11:07:46.570Z,32.78
2023-02-05T11:12:57.549Z,29.17
2023-02-05T11:15:29.654Z,26.85
2023-02-05T11:18:23.368Z,21.00
2023-02-05T11:21:03.885Z,28.95
2023-02-05T11:23:33.259Z,30.98
2023-02-05T11:26:18.329Z,33.30
2023-02-05T11:28:46.776Z,35.00
2023-02-05T11:31:32.172Z,25.77
2023-02-05T11:34:12.125Z,29.92
2023-02-05T11:36:58.232Z,32.95
2023-02-05T11:39:37.149Z,31.75
2023-02-05T11:42:31.327Z,29.08
2023-02-05T11:45:01.969Z,31.15
2023-02-05T11:47:34.868Z,30.27
2023-02-05T11:50:06.863Z,26.98
2023-02-05T11:52:37.591Z,26.85
2023-02-05T11:55:06.392Z,34.10
2023-02-05T11:57:39.193Z,30.10
2023-02-05T12:00:09.018Z,29.20
2023-02-05T12:02:37.912Z,35.85
2023-02-05T12:05:17.058Z,33.28
2023-02-05T12:07:55.661Z,31.35
2023-02-05T12:10:38.446Z,29.50
2023-02-05T12:18:37.411Z,32.80
2023-02-05T12:21:22.666Z,31.67
2023-02-05T12:24:28.236Z,29.83
2023-02-05T12:27:07.477Z,26.15
2023-02-05T12:30:10.182Z,23.98
2023-02-05T12:33:11.408Z,22.67
2023-02-05T12:35:38.381Z,25.42
2023-02-05T12:38:32.480Z,23.45
2023-02-05T12:41:24.198Z,19.20
2023-02-05T12:43:56.912Z,27.27
2023-02-05T12:47:15.163Z,22.48
2023-02-05T12:50:40.141Z,26.58
2023-02-05T12:53:28.659Z,28.55
2023-02-05T12:56:35.058Z,26.48
2023-02-05T12:59:41.067Z,26.35
2023-02-05T13:02:31.040Z,24.30
2023-02-05T13:05:16.261Z,18.60
2023-02-05T13:07:59.900Z,27.92
2023-02-05T13:10:53.662Z,28.00
2023-02-05T13:13:29.298Z,27.77
2023-02-05T13:16:03.017Z,25.48
2023-02-05T13:18:38.279Z,21.50
2023-02-05T13:21:36.865Z,27.95
2023-02-05T13:24:43.881Z,21.58
2023-02-05T13:27:45.640Z,31.40
2023-02-05T13:30:22.628Z,23.73
2023-02-05T13:32:54.919Z,26.70
2023-02-05T13:35:25.728Z,26.23
2023-02-05T13:38:45.957Z,24.70
2023-02-05T13:41:41.703Z,30.42
2023-02-05T13:44:50.889Z,25.17
2023-02-05T13:47:59.096Z,23.88
2023-02-05T13:50:49.613Z,20.25
2023-02-05T13:53:55.107Z,29.73
2023-02-05T13:56:32.600Z,32.38
2023-02-05T13:59:37.957Z,22.73
2023-02-05T14:02:23.231Z,15.68
2023-02-05T14:04:54.309Z,31.13
2023-02-05T14:07:27.703Z,26.58
2023-02-05T14:10:03.252Z,28.25
2023-02-05T14:12:41.778Z,22.70
2023-02-05T14:15:17.417Z,27.77
2023-02-05T14:17:49.221Z,22.23
2023-02-05T14:20:33.329Z,25.00
2023-02-05T14:23:02.950Z,31.17
2023-02-05T14:25:37.398Z,24.25
2023-02-05T14:28:08.153Z,30.02
2023-02-05T14:30:48.016Z,27.50
2023-02-05T14:33:38.596Z,28.33
2023-02-05T14:36:22.893Z,27.95
2023-02-05T14:39:21.870Z,29.50
2023-02-05T14:41:58.977Z,30.58
2023-02-05T14:44:34.947Z,31.10
2023-02-05T14:47:06.822Z,27.02
2023-02-05T14:49:33.826Z,31.02
2023-02-05T14:52:26.390Z,17.20
2023-02-05T14:55:17.435Z,27.95
2023-02-05T15:00:46.119Z,23.83
2023-02-05T15:03:17.829Z,24.42
2023-02-05T15:05:44.932Z,33.78
2023-02-05T15:08:15.785Z,32.30
2023-02-05T15:10:54.969Z,28.52
2023-02-05T15:13:25.415Z,36.85
2023-02-05T15:16:18.673Z,37.58
2023-02-05T15:18:59.857Z,28.05
2023-02-05T15:21:52.149Z,33.70
2023-02-05T15:24:28.240Z,30.35
2023-02-05T15:27:14.898Z,27.65
2023-02-05T15:29:47.699Z,34.67
2023-02-05T15:32:22.994Z,36.50
2023-02-05T15:35:00.706Z,29.52
2023-02-05T15:37:32.941Z,32.10
2023-02-05T15:40:24.901Z,28.40
2023-02-05T15:43:01.890Z,29.60
2023-02-05T15:45:37.087Z,26.13
2023-02-05T15:48:11.446Z,32.25
2023-02-05T15:50:48.735Z,23.48
2023-02-05T15:53:32.180Z,26.63
2023-02-05T15:56:08.415Z,21.30
2023-02-05T15:58:37.642Z,27.10
2023-02-05T16:01:05.255Z,24.77
2023-02-05T16:03:36.246Z,26.65
2023-02-05T16:06:22.456Z,29.80
2023-02-05T16:08:52.964Z,29.30
2023-02-05T16:11:33.504Z,28.83
2023-02-05T16:14:13.689Z,28.23
2023-02-05T16:17:18.383Z,29.42
2023-02-05T16:20:07.394Z,23.73
2023-02-05T16:22:58.731Z,26.38
2023-02-05T16:25:41.833Z,31.33
2023-02-05T16:28:24.369Z,41.60
2023-02-05T16:30:56.503Z,42.90
2023-02-05T16:33:36.113Z,27.60
2023-02-05T16:36:19.554Z,34.47
2023-02-05T16:39:01.500Z,38.92
2023-02-05T16:41:40.661Z,31.35
2023-02-05T16:44:27.101Z,28.55
2023-02-05T16:47:21.572Z,30.30
2023-02-05T16:49:49.564Z,35.28
2023-02-05T16:52:43.030Z,31.42
2023-02-05T16:55:16.199Z,36.17
2023-02-05T16:57:47.508Z,29.35
2023-02-05T17:00:25.943Z,42.97
2023-02-05T17:03:02.918Z,42.75
2023-02-05T17:05:37.064Z,33.60
2023-02-05T17:11:03.515Z,34.22
2023-02-05T17:13:39.090Z,31.95
2023-02-05T17:17:12.791Z,24.83
2023-02-05T17:20:29.811Z,36.72
2023-02-05T17:23:09.845Z,30.58
2023-02-05T17:26:12.401Z,30.20
2023-02-05T17:28:44.491Z,33.55
2023-02-05T17:31:13.804Z,26.58
2023-02-05T17:33:50.929Z,31.20
2023-02-05T17:36:23.970Z,37.40
2023-02-05T17:38:55.956Z,28.17
2023-02-05T17:41:47.672Z,42.13
2023-02-05T17:44:24.900Z,31.80
2023-02-05T17:46:54.676Z,34.53
2023-02-05T17:49:22.157Z,30.33
2023-02-05T17:51:50.090Z,34.20
2023-02-05T17:54:22.192Z,31.23
2023-02-05T17:56:51.580Z,33.55
2023-02-05T18:02:25.101Z,36.28
2023-02-05T18:04:57.662Z,37.85
2023-02-05T18:10:07.872Z,34.60
2023-02-05T18:12:35.968Z,50.25
2023-02-05T18:15:04.438Z,37.10
2023-02-05T18:17:37.750Z,35.95
2023-02-05T18:20:06.049Z,40.20
2023-02-05T18:22:35.486Z,39.30
2023-02-05T18:25:07.353Z,43.33
2023-02-05T18:33:28.800Z,34.22
2023-02-05T18:36:11.513Z,37.58
2023-02-05T18:41:22.567Z,45.65
2023-02-05T18:43:56.339Z,29.23
2023-02-05T18:46:25.890Z,35.78
2023-02-05T18:49:05.573Z,33.88
2023-02-05T18:51:44.178Z,29.23
2023-02-05T18:56:55.120Z,36.47
2023-02-05T18:59:26.213Z,35.35
2023-02-05T19:01:56.623Z,40.65
2023-02-05T19:04:28.031Z,53.13
2023-02-05T19:12:20.970Z,43.80
2023-02-05T19:14:50.630Z,43.92
2023-02-05T19:17:24.332Z,49.60
2023-02-05T19:19:55.836Z,43.65
2023-02-05T19:22:26.606Z,44.50
2023-02-05T19:24:54.016Z,46.35
2023-02-05T19:27:21.254Z,47.90
2023-02-05T19:29:48.504Z,54.75
2023-02-05T19:32:15.610Z,50.67
2023-02-05T19:34:43.561Z,45.65
2023-02-05T19:37:13.569Z,50.92
2023-02-05T19:39:51.169Z,54.03
2023-02-05T19:42:23.121Z,46.42
2023-02-05T19:44:52.071Z,61.15
2023-02-05T19:47:26.153Z,45.38
2023-02-05T19:49:54.292Z,46.33
2023-02-05T19:52:21.285Z,50.35
2023-02-05T19:54:48.431Z,47.42
2023-02-05T19:57:20.335Z,52.90
2023-02-05T19:59:48.614Z,43.08
2023-02-05T20:02:19.334Z,56.67
2023-02-05T20:04:47.582Z,57.65
2023-02-05T20:07:15.562Z,45.92
2023-02-05T20:09:42.623Z,42.45
2023-02-05T20:12:13.022Z,43.15
2023-02-05T20:14:40.184Z,48.63
2023-02-05T20:17:09.295Z,48.28
2023-02-05T20:19:38.741Z,48.50
2023-02-05T20:22:07.416Z,58.53
2023-02-05T20:24:35.642Z,60.67
2023-02-05T20:27:04.138Z,47.42
2023-02-05T20:32:37.155Z,49.55
2023-02-05T20:35:04.977Z,51.47
2023-02-05T20:37:45.006Z,43.47
2023-02-05T20:40:15.653Z,52.53
2023-02-05T20:42:47.911Z,55.45
2023-02-05T20:45:16.435Z,57.67
2023-02-05T20:47:43.466Z,41.13
2023-02-05T20:50:14.301Z,48.63
2023-02-05T20:52:43.965Z,41.33
2023-02-05T20:55:37.735Z,50.67
2023-02-05T21:01:18.192Z,46.70
2023-02-05T21:03:57.956Z,43.92
2023-02-05T21:06:29.444Z,40.03
2023-02-05T21:08:57.291Z,51.83
2023-02-05T21:11:28.428Z,44.97
2023-02-05T21:14:05.110Z,62.65
2023-02-05T21:16:37.086Z,40.67
2023-02-05T21:19:09.770Z,53.60
2023-02-05T21:21:37.956Z,44.10
2023-02-05T21:24:16.758Z,56.78
2023-02-05T21:26:48.370Z,51.65
2023-02-05T21:29:18.052Z,38.80
2023-02-05T21:31:48.946Z,50.88
2023-02-05T21:34:22.577Z,44.13
2023-02-05T21:36:51.058Z,63.90
2023-02-05T21:39:22.920Z,47.97
2023-02-05T21:41:54.314Z,41.75
2023-02-05T21:44:23.039Z,41.35
2023-02-05T21:46:53.470Z,51.75
2023-02-05T21:49:21.485Z,51.95
2023-02-05T21:51:50.467Z,49.40
2023-02-05T21:54:41.652Z,39.15
2023-02-05T21:57:29.588Z,48.38
2023-02-05T22:04:29.080Z,51.35
2023-02-05T22:06:56.188Z,44.92
2023-02-05T22:09:27.116Z,52.58
2023-02-05T22:12:03.961Z,54.13
2023-02-05T22:14:36.325Z,46.58
2023-02-05T22:17:05.032Z,56.15
2023-02-05T22:19:32.262Z,46.22
2023-02-05T22:22:00.356Z,47.67
2023-02-05T22:24:34.588Z,42.45
2023-02-05T22:27:06.902Z,47.50
2023-02-05T22:29:37.810Z,31.55
2023-02-05T22:32:07.957Z,62.78
2023-02-05T22:34:43.479Z,46.90
2023-02-05T22:39:56.144Z,55.00
2023-02-05T22:42:35.862Z,49.97
2023-02-05T22:45:08.953Z,48.58
2023-02-05T22:47:42.348Z,40.97
2023-02-05T22:50:16.533Z,49.83
2023-02-05T22:52:45.599Z,49.67
2023-02-05T22:58:04.188Z,48.90
2023-02-05T23:00:33.570Z,54.53
2023-02-05T23:03:04.794Z,54.80
2023-02-05T23:05:42.377Z,50.45
2023-02-05T23:08:12.588Z,52.72
2023-02-05T23:10:43.119Z,61.72
2023-02-05T23:13:16.476Z,46.42
2023-02-05T23:20:25.199Z,63.08
2023-02-05T23:25:50.233Z,49.15
2023-02-05T23:28:24.908Z,50.78
2023-02-05T23:30:55.704Z,49.67
2023-02-05T23:33:25.434Z,39.40
2023-02-05T23:35:52.749Z,44.65
2023-02-05T23:38:21.039Z,44.63
2023-02-05T23:40:49.548Z,48.85
2023-02-05T23:43:20.547Z,57.55
2023-02-05T23:48:46.425Z,48.90
2023-02-05T23:55:42.133Z,52.15
2023-02-05T23:58:10.814Z,58.60
